Time;durP1;ratioP1;P1;durP2;ratioP2;P2;SDS_P1;SDS_P2;PMS_P1;PMS_P2;Temp;Humidity;BMP_temperature;BMP_pressure;BME280_temperature;BME280_humidity;BME280_pressure;Samples;Min_cycle;Max_cycle;Signal;HPM_P1;HPM_P2
2024/01/20 00:01:31;;;;;;;0.37;0.37;;;1.20;99.90;;;;;;10407847;28;20615;-78
2024/01/20 00:06:33;;;;;;;0.40;0.40;;;1.20;99.90;;;;;;10409130;28;20699;-79
2024/01/20 00:11:38;;;;;;;0.50;0.50;;;1.30;99.90;;;;;;10410056;28;20225;-79
2024/01/20 00:16:41;;;;;;;0.40;0.40;;;1.30;99.90;;;;;;10404109;28;20202;-78
2024/01/20 00:21:43;;;;;;;0.50;0.50;;;1.30;99.90;;;;;;10399238;28;20288;-77
2024/01/20 00:26:47;;;;;;;0.50;0.50;;;1.30;99.90;;;;;;10393135;28;20214;-78
2024/01/20 00:31:49;;;;;;;0.40;0.40;;;1.20;99.90;;;;;;10399757;28;20625;-77
2024/01/20 00:36:51;;;;;;;0.40;0.40;;;1.20;99.90;;;;;;10394630;28;20249;-78
2024/01/20 00:41:55;;;;;;;0.30;0.30;;;1.20;99.90;;;;;;10396958;28;20287;-79
2024/01/20 00:46:57;;;;;;;0.30;0.30;;;1.20;99.90;;;;;;10409590;28;20220;-79
2024/01/20 00:52:00;;;;;;;0.40;0.40;;;1.10;99.90;;;;;;10410105;28;20263;-79
2024/01/20 00:57:04;;;;;;;0.40;0.40;;;1.10;99.90;;;;;;10390091;28;20201;-80
2024/01/20 01:02:07;;;;;;;0.30;0.30;;;1.10;99.90;;;;;;10407428;28;20293;-78
2024/01/20 01:07:10;;;;;;;0.30;0.30;;;1.20;99.90;;;;;;10406515;28;20218;-79
2024/01/20 01:12:13;;;;;;;0.30;0.30;;;1.30;99.90;;;;;;10407020;28;20202;-79
2024/01/20 01:17:17;;;;;;;0.33;0.33;;;1.30;99.90;;;;;;10408077;28;20682;-79
2024/01/20 01:22:19;;;;;;;0.40;0.40;;;1.30;99.90;;;;;;10404997;28;20186;-79
2024/01/20 01:27:23;;;;;;;0.40;0.40;;;1.40;99.90;;;;;;10404891;28;20225;-78
2024/01/20 01:32:26;;;;;;;0.37;0.37;;;1.40;99.90;;;;;;10404156;28;20194;-78
2024/01/20 01:37:28;;;;;;;0.40;0.40;;;1.40;99.90;;;;;;10411244;28;20260;-78
2024/01/20 01:42:33;;;;;;;0.30;0.30;;;1.50;99.90;;;;;;10414903;28;20186;-78
2024/01/20 01:47:36;;;;;;;0.40;0.40;;;1.50;99.90;;;;;;10413804;28;20244;-78
2024/01/20 01:52:39;;;;;;;0.30;0.30;;;1.60;99.90;;;;;;10411355;28;20268;-78
2024/01/20 01:57:44;;;;;;;0.30;0.30;;;1.60;99.90;;;;;;10409818;28;20946;-80
2024/01/20 02:02:46;;;;;;;0.30;0.30;;;1.60;99.90;;;;;;10403732;28;20202;-77
2024/01/20 02:07:49;;;;;;;0.40;0.40;;;1.70;99.90;;;;;;10410925;28;20288;-80
2024/01/20 02:12:53;;;;;;;0.30;0.30;;;1.60;99.90;;;;;;10406894;28;20186;-80
2024/01/20 02:17:57;;;;;;;0.40;0.40;;;1.60;99.90;;;;;;10406007;28;20308;-78
2024/01/20 02:23:00;;;;;;;0.40;0.40;;;1.50;99.90;;;;;;10425624;28;20198;-80
2024/01/20 02:28:03;;;;;;;0.40;0.40;;;1.40;99.90;;;;;;10399138;28;20226;-78
2024/01/20 02:33:05;;;;;;;0.47;0.47;;;1.40;99.90;;;;;;10408233;28;20203;-80
2024/01/20 02:38:09;;;;;;;0.30;0.30;;;1.30;99.90;;;;;;10424583;28;20218;-79
2024/01/20 02:43:11;;;;;;;0.30;0.30;;;1.20;99.90;;;;;;10424913;28;20206;-80
2024/01/20 02:48:14;;;;;;;0.40;0.40;;;1.10;99.90;;;;;;10404990;28;20229;-79
2024/01/20 02:53:17;;;;;;;0.50;0.50;;;1.10;99.90;;;;;;10405635;28;20600;-80
2024/01/20 02:58:20;;;;;;;0.30;0.30;;;1.20;99.90;;;;;;10405047;28;20261;-78
2024/01/20 03:03:22;;;;;;;0.40;0.40;;;1.30;99.90;;;;;;10405675;28;20199;-79
2024/01/20 03:08:26;;;;;;;0.40;0.40;;;1.30;99.90;;;;;;10419121;28;20341;-80
2024/01/20 03:13:28;;;;;;;0.40;0.40;;;1.40;99.90;;;;;;10354629;28;20199;-79
2024/01/20 03:18:30;;;;;;;0.40;0.40;;;1.50;99.90;;;;;;10403234;28;20292;-80
2024/01/20 03:23:34;;;;;;;0.40;0.40;;;1.50;99.90;;;;;;10402460;28;20252;-77
2024/01/20 03:28:37;;;;;;;0.30;0.30;;;1.50;99.90;;;;;;10399700;28;20226;-79
2024/01/20 03:33:40;;;;;;;0.40;0.40;;;1.40;99.90;;;;;;10400558;28;20206;-78
2024/01/20 03:38:43;;;;;;;0.50;0.50;;;1.20;99.90;;;;;;10398775;28;20269;-80
2024/01/20 03:43:46;;;;;;;0.37;0.37;;;1.00;99.90;;;;;;10395290;28;20217;-79
2024/01/20 03:48:48;;;;;;;0.40;0.40;;;0.90;99.90;;;;;;10393205;28;20223;-80
2024/01/20 03:53:52;;;;;;;0.40;0.40;;;0.80;99.90;;;;;;10392005;28;20198;-78
2024/01/20 03:58:54;;;;;;;0.50;0.50;;;0.70;99.90;;;;;;10393143;28;20281;-80
2024/01/20 04:03:56;;;;;;;0.60;0.60;;;0.70;99.90;;;;;;10395035;28;20199;-80
2024/01/20 04:09:00;;;;;;;0.70;0.70;;;0.70;99.90;;;;;;10394259;28;20222;-79
2024/01/20 04:14:02;;;;;;;0.43;0.43;;;0.80;99.90;;;;;;10393195;28;20598;-79
2024/01/20 04:19:05;;;;;;;0.70;0.70;;;0.80;99.90;;;;;;10392430;28;20227;-79
2024/01/20 04:24:08;;;;;;;0.60;0.60;;;0.80;99.90;;;;;;10390762;28;20229;-79
2024/01/20 04:29:11;;;;;;;0.70;0.70;;;0.80;99.90;;;;;;10406304;28;20226;-78
2024/01/20 04:34:13;;;;;;;0.50;0.50;;;0.60;99.90;;;;;;10391258;28;20187;-80
2024/01/20 04:39:17;;;;;;;0.73;0.73;;;0.60;99.90;;;;;;10390965;28;20221;-79
2024/01/20 04:44:19;;;;;;;0.40;0.40;;;0.50;99.90;;;;;;10389606;28;20210;-77
2024/01/20 04:49:22;;;;;;;0.50;0.50;;;0.50;99.90;;;;;;10389423;28;20222;-79
2024/01/20 04:54:25;;;;;;;0.50;0.50;;;0.40;99.90;;;;;;10388609;28;20190;-79
2024/01/20 04:59:28;;;;;;;0.50;0.50;;;0.40;99.90;;;;;;10387700;28;20218;-78
2024/01/20 05:04:30;;;;;;;0.63;0.63;;;0.50;99.90;;;;;;10388370;28;20211;-80
2024/01/20 05:09:34;;;;;;;0.60;0.60;;;0.60;99.90;;;;;;10390654;28;20226;-78
2024/01/20 05:14:36;;;;;;;0.40;0.40;;;0.80;99.90;;;;;;10393513;28;20253;-78
2024/01/20 05:19:39;;;;;;;0.60;0.60;;;0.90;99.90;;;;;;10433412;22;20309;-78
2024/01/20 05:24:43;;;;;;;0.50;0.50;;;1.00;99.90;;;;;;10495075;28;20224;-80
2024/01/20 05:29:45;;;;;;;0.60;0.60;;;1.00;99.90;;;;;;10487711;28;20217;-79
2024/01/20 05:34:48;;;;;;;0.70;0.70;;;0.90;99.90;;;;;;10488541;28;20201;-77
2024/01/20 05:39:52;;;;;;;0.60;0.60;;;0.90;99.90;;;;;;10484249;28;20217;-78
2024/01/20 05:44:54;;;;;;;0.57;0.57;;;0.80;99.90;;;;;;10482762;28;20752;-79
2024/01/20 05:49:57;;;;;;;0.40;0.40;;;0.70;99.90;;;;;;10482625;28;20605;-79
2024/01/20 05:55:00;;;;;;;0.53;0.53;;;0.70;99.90;;;;;;10480595;28;20244;-78
2024/01/20 06:00:04;;;;;;;0.40;0.40;;;0.60;99.90;;;;;;10480455;28;20225;-79
2024/01/20 06:05:07;;;;;;;0.60;0.60;;;0.60;99.90;;;;;;10479475;28;20622;-79
2024/01/20 06:10:11;;;;;;;0.60;0.60;;;0.50;99.90;;;;;;10479545;28;20229;-79
2024/01/20 06:15:13;;;;;;;0.50;0.50;;;0.40;99.90;;;;;;10449148;28;20683;-79
2024/01/20 06:20:16;;;;;;;0.47;0.47;;;0.30;99.90;;;;;;10461917;28;20765;-78
2024/01/20 06:25:20;;;;;;;0.50;0.50;;;0.30;99.90;;;;;;10479377;28;20224;-79
2024/01/20 06:30:22;;;;;;;0.60;0.60;;;0.30;99.90;;;;;;10472562;28;20244;-80
2024/01/20 06:35:24;;;;;;;0.50;0.50;;;0.40;99.90;;;;;;10472317;28;20197;-78
2024/01/20 06:40:28;;;;;;;0.50;0.50;;;0.40;99.90;;;;;;10471755;28;20217;-77
2024/01/20 06:45:33;;;;;;;0.60;0.60;;;0.40;99.90;;;;;;10444465;28;20575;-79
2024/01/20 06:50:39;;;;;;;0.50;0.50;;;0.40;99.90;;;;;;10469937;28;20221;-78
2024/01/20 06:55:43;;;;;;;0.40;0.40;;;0.50;99.90;;;;;;10468383;28;20232;-79
2024/01/20 07:00:45;;;;;;;0.50;0.50;;;0.50;99.90;;;;;;10467794;28;20618;-79
2024/01/20 07:05:47;;;;;;;0.40;0.40;;;0.50;99.90;;;;;;10465627;28;20584;-77
2024/01/20 07:10:51;;;;;;;0.50;0.50;;;0.30;99.90;;;;;;10466041;28;20213;-79
2024/01/20 07:15:53;;;;;;;0.40;0.40;;;0.30;99.90;;;;;;10464554;28;20193;-79
2024/01/20 07:20:56;;;;;;;0.40;0.40;;;0.30;99.90;;;;;;10467865;28;20791;-79
2024/01/20 07:26:00;;;;;;;0.70;0.70;;;0.40;99.90;;;;;;10442453;28;20209;-77
2024/01/20 07:31:03;;;;;;;0.60;0.60;;;0.50;99.90;;;;;;10446865;28;20264;-80
2024/01/20 07:36:06;;;;;;;0.60;0.60;;;0.50;99.90;;;;;;10463766;28;20185;-80
2024/01/20 07:41:10;;;;;;;0.57;0.57;;;0.60;99.90;;;;;;10463567;28;20282;-79
2024/01/20 07:46:12;;;;;;;0.50;0.50;;;0.60;99.90;;;;;;10465274;28;20217;-78
2024/01/20 07:51:15;;;;;;;0.40;0.40;;;0.60;99.90;;;;;;10444280;28;20216;-79
2024/01/20 07:56:18;;;;;;;0.57;0.57;;;0.50;99.90;;;;;;10462280;28;20194;-79
2024/01/20 08:01:21;;;;;;;0.60;0.60;;;0.40;99.90;;;;;;10455859;28;20220;-79
2024/01/20 08:06:23;;;;;;;0.50;0.50;;;0.30;99.90;;;;;;10452704;28;20217;-80
2024/01/20 08:11:27;;;;;;;0.50;0.50;;;0.20;99.90;;;;;;10454189;28;20213;-80
2024/01/20 08:16:29;;;;;;;0.40;0.40;;;0.20;99.90;;;;;;10452864;28;20200;-79
2024/01/20 08:21:33;;;;;;;0.57;0.57;;;0.20;99.90;;;;;;10482180;28;20254;-79
2024/01/20 08:26:37;;;;;;;0.30;0.30;;;0.30;99.90;;;;;;10521480;28;20587;-77
2024/01/20 08:31:39;;;;;;;0.40;0.40;;;0.30;99.90;;;;;;10535436;28;20215;-77
2024/01/20 08:36:41;;;;;;;0.40;0.40;;;0.40;99.90;;;;;;10513730;28;20195;-77
2024/01/20 08:41:45;;;;;;;0.30;0.30;;;0.40;99.90;;;;;;10529633;28;20257;-78
2024/01/20 08:46:47;;;;;;;0.03;0.03;;;0.40;99.90;;;;;;10517646;28;20219;-77
2024/01/20 08:51:50;;;;;;;0.40;0.40;;;0.50;99.90;;;;;;10483757;28;20295;-78
2024/01/20 08:56:53;;;;;;;0.30;0.30;;;0.50;99.90;;;;;;10456946;28;20203;-78
2024/01/20 09:01:56;;;;;;;0.30;0.30;;;0.50;99.90;;;;;;10509093;28;20212;-77
2024/01/20 09:06:58;;;;;;;0.30;0.30;;;0.50;99.90;;;;;;10520742;28;20711;-77
2024/01/20 09:12:02;;;;;;;0.40;0.40;;;0.60;99.90;;;;;;10539248;28;20223;-80
2024/01/20 09:17:05;;;;;;;0.40;0.40;;;0.70;99.90;;;;;;10538701;28;20195;-80
2024/01/20 09:22:08;;;;;;;0.40;0.40;;;0.70;99.90;;;;;;10538368;28;20259;-79
2024/01/20 09:27:13;;;;;;;0.30;0.30;;;0.70;99.90;;;;;;10537077;28;20211;-79
2024/01/20 09:32:15;;;;;;;0.20;0.20;;;0.90;99.90;;;;;;10535760;28;20684;-79
2024/01/20 09:37:17;;;;;;;0.30;0.30;;;0.90;99.90;;;;;;10532706;28;20252;-78
2024/01/20 09:42:22;;;;;;;0.30;0.30;;;0.90;99.90;;;;;;10533994;28;20640;-78
2024/01/20 09:47:24;;;;;;;0.30;0.30;;;1.00;99.90;;;;;;10532044;28;20219;-78
2024/01/20 09:52:28;;;;;;;0.30;0.30;;;1.10;99.90;;;;;;10517361;28;20220;-80
2024/01/20 09:57:33;;;;;;;0.20;0.20;;;1.10;99.90;;;;;;10510830;28;20200;-80
2024/01/20 10:02:37;;;;;;;0.40;0.40;;;1.10;99.90;;;;;;10524204;28;20629;-80
2024/01/20 10:07:40;;;;;;;0.30;0.30;;;1.10;99.90;;;;;;10505934;28;20278;-81
2024/01/20 10:12:43;;;;;;;0.40;0.40;;;0.90;99.90;;;;;;10486402;28;20228;-80
2024/01/20 10:17:46;;;;;;;0.40;0.40;;;;;;;;;;10495387;28;20189;-78
2024/01/20 10:22:49;;;;;;;0.30;0.30;;;0.30;93.60;;;;;;10471765;28;20233;-80
2024/01/20 10:27:53;;;;;;;0.30;0.30;;;0.20;94.70;;;;;;10481071;28;20225;-79
2024/01/20 10:32:56;;;;;;;0.30;0.30;;;0.10;94.90;;;;;;10470073;28;20220;-79
2024/01/20 10:38:01;;;;;;;0.40;0.40;;;0.10;94.90;;;;;;10467275;28;20194;-79
2024/01/20 10:43:12;;;;;;;0.30;0.30;;;0.10;95.30;;;;;;10464960;28;20221;-78
2024/01/20 10:48:18;;;;;;;0.30;0.30;;;0.20;95.30;;;;;;10464555;28;20217;-78
2024/01/20 10:53:21;;;;;;;0.37;0.37;;;0.30;95.40;;;;;;10443149;28;20205;-77
2024/01/20 10:58:32;;;;;;;0.50;0.50;;;0.30;95.70;;;;;;10459547;28;20201;-76
2024/01/20 11:03:35;;;;;;;0.30;0.30;;;0.50;96.00;;;;;;10491327;28;20634;-78
2024/01/20 11:08:48;;;;;;;0.40;0.40;;;0.50;95.90;;;;;;10507960;28;20224;-78
2024/01/20 11:13:52;;;;;;;0.30;0.30;;;0.60;96.00;;;;;;10512002;28;20265;-77
2024/01/20 11:19:04;;;;;;;0.40;0.40;;;0.80;95.80;;;;;;10503270;28;20708;-77
2024/01/20 11:24:07;;;;;;;0.40;0.40;;;0.90;95.80;;;;;;10504249;28;20199;-79
2024/01/20 11:29:11;;;;;;;0.30;0.30;;;1.00;95.30;;;;;;10503213;28;20230;-78
2024/01/20 11:34:14;;;;;;;0.40;0.40;;;1.00;95.30;;;;;;10501048;28;20753;-79
2024/01/20 11:39:18;;;;;;;0.40;0.40;;;1.10;95.10;;;;;;10499505;28;20599;-78
2024/01/20 11:44:22;;;;;;;0.30;0.30;;;1.20;95.60;;;;;;10480860;28;20196;-76
2024/01/20 11:49:24;;;;;;;0.30;0.30;;;1.30;95.60;;;;;;10496063;28;20219;-78
2024/01/20 11:54:28;;;;;;;0.30;0.30;;;1.40;95.70;;;;;;10496807;28;20269;-75
2024/01/20 11:59:32;;;;;;;0.40;0.40;;;1.50;95.80;;;;;;10495137;28;20213;-76
2024/01/20 12:04:34;;;;;;;0.40;0.40;;;1.60;95.60;;;;;;10494417;28;20192;-76
2024/01/20 12:09:37;;;;;;;0.30;0.30;;;1.70;95.60;;;;;;10441163;28;20709;-79
2024/01/20 12:14:42;;;;;;;0.27;0.27;;;1.80;95.40;;;;;;10493152;28;20684;-80
2024/01/20 12:19:45;;;;;;;0.30;0.30;;;1.90;94.90;;;;;;10501741;28;20600;-80
2024/01/20 12:24:48;;;;;;;0.30;0.30;;;2.10;94.10;;;;;;10464136;28;20189;-80
2024/01/20 12:29:52;;;;;;;0.20;0.20;;;2.10;94.90;;;;;;10511392;28;20224;-79
2024/01/20 12:34:55;;;;;;;0.40;0.40;;;2.10;94.90;;;;;;10509075;28;20191;-80
2024/01/20 12:39:57;;;;;;;0.30;0.30;;;2.20;95.00;;;;;;10506385;28;20212;-80
2024/01/20 12:45:01;;;;;;;0.30;0.30;;;2.30;94.50;;;;;;10462853;28;20189;-80
2024/01/20 12:50:04;;;;;;;0.30;0.30;;;2.40;94.10;;;;;;10497413;28;20235;-77
2024/01/20 12:55:08;;;;;;;0.30;0.30;;;2.50;94.20;;;;;;10483577;28;20189;-81
2024/01/20 13:00:13;;;;;;;0.20;0.20;;;2.60;94.30;;;;;;10442396;28;20224;-81
2024/01/20 13:05:16;;;;;;;0.23;0.23;;;2.60;94.00;;;;;;10455496;28;20673;-81
2024/01/20 13:10:18;;;;;;;0.30;0.30;;;2.70;93.90;;;;;;10474293;28;20224;-80
2024/01/20 13:15:23;;;;;;;0.20;0.20;;;2.70;94.10;;;;;;10497667;28;20203;-79
2024/01/20 13:20:25;;;;;;;0.17;0.17;;;2.70;94.40;;;;;;10498251;28;20228;-80
2024/01/20 13:25:28;;;;;;;0.30;0.30;;;2.70;94.00;;;;;;10494948;28;20506;-81
2024/01/20 13:30:31;;;;;;;0.37;0.37;;;2.70;94.40;;;;;;10491737;28;20764;-79
2024/01/20 13:35:34;;;;;;;0.20;0.20;;;2.80;94.40;;;;;;10507561;28;20226;-80
2024/01/20 13:40:36;;;;;;;0.40;0.40;;;2.80;94.10;;;;;;10522569;28;20265;-80
2024/01/20 13:45:40;;;;;;;0.30;0.30;;;2.90;94.30;;;;;;10507413;28;20208;-77
2024/01/20 13:50:42;;;;;;;0.20;0.20;;;2.90;93.90;;;;;;10496318;28;20697;-80
2024/01/20 13:55:45;;;;;;;0.00;0.00;;;2.90;94.10;;;;;;10470017;28;20195;-78
2024/01/20 14:00:49;;;;;;;0.30;0.30;;;3.00;94.40;;;;;;10505978;28;20570;-79
2024/01/20 14:05:51;;;;;;;0.30;0.30;;;3.00;94.30;;;;;;10477935;28;20573;-81
2024/01/20 14:10:54;;;;;;;0.20;0.20;;;3.00;94.30;;;;;;10507625;28;20227;-81
2024/01/20 14:15:58;;;;;;;0.17;0.17;;;3.00;94.60;;;;;;10477096;28;20201;-80
2024/01/20 14:21:00;;;;;;;0.30;0.30;;;2.90;94.80;;;;;;10493631;28;20721;-81
2024/01/20 14:26:02;;;;;;;0.20;0.20;;;2.90;94.90;;;;;;10506759;28;20192;-80
2024/01/20 14:31:07;;;;;;;0.30;0.30;;;2.90;95.20;;;;;;10434275;28;20228;-77
2024/01/20 14:36:11;;;;;;;0.50;0.50;;;2.80;95.40;;;;;;10482552;28;20193;-78
2024/01/20 14:41:15;;;;;;;0.30;0.30;;;2.80;95.90;;;;;;10461887;28;20217;-78
2024/01/20 14:46:20;;;;;;;0.40;0.40;;;2.70;95.60;;;;;;10462403;28;20205;-78
2024/01/20 14:51:22;;;;;;;0.30;0.30;;;2.70;95.70;;;;;;10469325;28;20232;-77
2024/01/20 14:56:28;;;;;;;0.40;0.40;;;2.60;95.60;;;;;;10458919;28;20198;-78
2024/01/20 15:01:33;;;;;;;0.40;0.40;;;2.60;95.70;;;;;;10442578;28;20625;-78
2024/01/20 15:06:35;;;;;;;0.20;0.20;;;2.50;95.60;;;;;;10470585;28;20670;-79
2024/01/20 15:11:38;;;;;;;0.30;0.30;;;2.40;95.70;;;;;;10467351;28;20670;-78
2024/01/20 15:16:43;;;;;;;0.30;0.30;;;2.30;95.80;;;;;;10484679;28;20264;-79
2024/01/20 15:21:46;;;;;;;0.27;0.27;;;2.40;95.80;;;;;;10450615;28;20225;-78
2024/01/20 15:26:50;;;;;;;0.40;0.40;;;2.30;96.00;;;;;;10471256;28;20190;-79
2024/01/20 15:31:54;;;;;;;0.33;0.33;;;2.20;96.00;;;;;;10443769;28;20220;-78
2024/01/20 15:36:56;;;;;;;0.10;0.10;;;2.10;96.10;;;;;;10467412;28;20211;-78
2024/01/20 15:41:59;;;;;;;0.40;0.40;;;2.10;96.20;;;;;;10452134;28;20578;-78
2024/01/20 15:47:03;;;;;;;0.40;0.40;;;2.00;96.20;;;;;;10478354;28;20209;-77
2024/01/20 15:52:05;;;;;;;0.40;0.40;;;1.90;96.30;;;;;;10450743;28;20562;-77
2024/01/20 15:57:09;;;;;;;0.33;0.33;;;1.80;96.40;;;;;;10450751;28;20193;-78
2024/01/20 16:02:14;;;;;;;0.20;0.20;;;1.70;96.70;;;;;;10470333;28;20709;-80
2024/01/20 16:07:17;;;;;;;0.30;0.30;;;1.70;96.50;;;;;;10428022;28;20186;-78
2024/01/20 16:12:19;;;;;;;0.30;0.30;;;1.60;97.10;;;;;;10470600;28;20275;-78
2024/01/20 16:17:23;;;;;;;0.40;0.40;;;1.50;96.90;;;;;;10462867;28;20223;-78
2024/01/20 16:22:25;;;;;;;0.40;0.40;;;1.50;97.00;;;;;;10460768;28;20290;-77
2024/01/20 16:27:28;;;;;;;0.40;0.40;;;1.40;96.90;;;;;;10452579;28;20741;-78
2024/01/20 16:32:31;;;;;;;0.20;0.20;;;1.30;96.90;;;;;;10454419;28;20217;-77
2024/01/20 16:37:34;;;;;;;0.37;0.37;;;1.20;96.90;;;;;;10454677;28;20189;-80
2024/01/20 16:42:36;;;;;;;0.40;0.40;;;1.10;96.80;;;;;;10452085;28;20709;-79
2024/01/20 16:47:43;;;;;;;0.10;0.10;;;1.00;96.80;;;;;;10455369;28;20753;-77
2024/01/20 16:52:45;;;;;;;0.40;0.40;;;1.00;97.00;;;;;;10450570;28;20219;-78
2024/01/20 16:57:49;;;;;;;0.10;0.10;;;0.90;96.90;;;;;;10464409;28;20196;-78
2024/01/20 17:02:55;;;;;;;0.40;0.40;;;0.90;96.90;;;;;;10492834;28;20915;-80
2024/01/20 17:07:58;;;;;;;0.30;0.30;;;0.80;96.90;;;;;;10460186;28;20214;-79
2024/01/20 17:13:00;;;;;;;0.40;0.40;;;0.80;96.90;;;;;;10474212;28;20224;-79
2024/01/20 17:18:04;;;;;;;0.10;0.10;;;0.80;96.90;;;;;;10460933;28;20203;-79
2024/01/20 17:23:07;;;;;;;0.10;0.10;;;0.80;97.10;;;;;;10505552;22;20232;-78
2024/01/20 17:28:09;;;;;;;0.30;0.30;;;0.70;97.10;;;;;;10477623;28;20208;-81
2024/01/20 17:33:13;;;;;;;0.20;0.20;;;0.70;97.10;;;;;;10457288;28;20694;-78
2024/01/20 17:38:16;;;;;;;0.50;0.50;;;0.70;96.90;;;;;;10432217;28;20240;-79
2024/01/20 17:43:18;;;;;;;0.40;0.40;;;0.70;97.10;;;;;;10454714;28;20243;-78
2024/01/20 17:48:22;;;;;;;0.30;0.30;;;0.70;97.00;;;;;;10439993;28;20657;-80
2024/01/20 17:53:25;;;;;;;0.20;0.20;;;0.60;97.10;;;;;;10419348;28;20225;-81
2024/01/20 17:58:28;;;;;;;0.40;0.40;;;0.60;97.10;;;;;;10421178;28;20185;-80
2024/01/20 18:03:32;;;;;;;0.30;0.30;;;0.60;96.90;;;;;;10444344;28;20217;-80
2024/01/20 18:08:35;;;;;;;0.50;0.50;;;0.60;96.90;;;;;;10451589;28;20730;-81
2024/01/20 18:13:37;;;;;;;0.40;0.40;;;0.60;96.90;;;;;;10451646;28;20221;-79
2024/01/20 18:18:41;;;;;;;0.50;0.50;;;0.50;96.90;;;;;;10449142;28;20190;-79
2024/01/20 18:23:44;;;;;;;0.60;0.60;;;0.50;97.00;;;;;;10448244;28;20707;-77
2024/01/20 18:28:47;;;;;;;0.37;0.37;;;0.50;97.10;;;;;;10448719;28;20221;-79
2024/01/20 18:33:51;;;;;;;0.50;0.50;;;0.50;97.10;;;;;;10432483;28;20282;-79
2024/01/20 18:38:53;;;;;;;0.50;0.50;;;0.50;97.00;;;;;;10448499;28;20675;-78
2024/01/20 18:43:56;;;;;;;0.40;0.40;;;0.50;97.20;;;;;;10448015;28;20275;-79
2024/01/20 18:48:59;;;;;;;0.40;0.40;;;0.50;97.30;;;;;;10428822;28;20280;-81
2024/01/20 18:54:02;;;;;;;0.40;0.40;;;0.50;97.20;;;;;;10446719;28;20213;-78
2024/01/20 18:59:04;;;;;;;0.30;0.30;;;0.50;97.00;;;;;;10446920;28;20236;-80
2024/01/20 19:04:08;;;;;;;0.47;0.47;;;0.50;96.90;;;;;;10447759;28;20224;-81
2024/01/20 19:09:10;;;;;;;0.20;0.20;;;0.50;96.80;;;;;;10415702;28;20251;-78
2024/01/20 19:14:13;;;;;;;0.47;0.47;;;0.50;96.80;;;;;;10447402;28;20218;-80
2024/01/20 19:19:16;;;;;;;0.40;0.40;;;0.50;97.00;;;;;;10414455;28;20725;-80
2024/01/20 19:24:20;;;;;;;0.40;0.40;;;0.50;96.60;;;;;;10426246;28;20205;-81
2024/01/20 19:29:22;;;;;;;0.30;0.30;;;0.50;96.60;;;;;;10424357;28;20218;-79
2024/01/20 19:34:26;;;;;;;0.40;0.40;;;0.50;96.40;;;;;;10403378;28;20205;-81
2024/01/20 19:39:28;;;;;;;0.30;0.30;;;0.50;96.40;;;;;;10442112;28;20209;-80
2024/01/20 19:44:31;;;;;;;0.10;0.10;;;0.60;96.20;;;;;;10442004;28;20647;-78
2024/01/20 19:49:35;;;;;;;0.40;0.40;;;0.50;95.70;;;;;;10425020;28;20229;-79
2024/01/20 19:54:37;;;;;;;0.50;0.50;;;0.50;95.70;;;;;;10446487;28;20223;-80
2024/01/20 19:59:39;;;;;;;0.30;0.30;;;0.40;95.80;;;;;;10427455;28;20625;-78
2024/01/20 20:04:43;;;;;;;0.30;0.30;;;0.40;95.80;;;;;;10397723;28;20201;-76
2024/01/20 20:09:46;;;;;;;0.30;0.30;;;0.30;96.00;;;;;;10435655;28;20225;-78
2024/01/20 20:14:48;;;;;;;0.40;0.40;;;0.30;95.60;;;;;;10418616;28;20202;-79
2024/01/20 20:19:52;;;;;;;0.30;0.30;;;0.20;95.60;;;;;;10436491;28;20226;-79
2024/01/20 20:24:54;;;;;;;0.40;0.40;;;0.20;95.80;;;;;;10435750;28;20202;-78
2024/01/20 20:29:57;;;;;;;0.40;0.40;;;0.20;95.50;;;;;;10434340;28;20218;-79
2024/01/20 20:35:00;;;;;;;0.40;0.40;;;0.10;95.50;;;;;;10433416;28;20244;-77
2024/01/20 20:40:03;;;;;;;0.40;0.40;;;-0.10;95.40;;;;;;10433036;28;20218;-77
2024/01/20 20:45:07;;;;;;;0.30;0.30;;;-0.10;95.30;;;;;;10432352;28;20201;-79
2024/01/20 20:50:16;;;;;;;0.30;0.30;;;-0.10;95.10;;;;;;10433782;28;20218;-81
2024/01/20 20:55:19;;;;;;;0.40;0.40;;;-0.20;95.20;;;;;;10436438;28;20205;-82
2024/01/20 21:00:21;;;;;;;0.30;0.30;;;-0.20;95.10;;;;;;10447189;28;20206;-81
2024/01/20 21:05:25;;;;;;;0.40;0.40;;;-0.20;95.00;;;;;;10432173;28;20197;-81
2024/01/20 21:10:27;;;;;;;0.50;0.50;;;-0.30;95.10;;;;;;10432459;28;20222;-80
2024/01/20 21:15:29;;;;;;;0.47;0.47;;;-0.30;95.10;;;;;;10430639;28;20220;-80
2024/01/20 21:20:33;;;;;;;0.40;0.40;;;-0.40;95.00;;;;;;10414664;28;20651;-80
2024/01/20 21:25:36;;;;;;;0.40;0.40;;;-0.40;95.00;;;;;;10431183;28;20198;-79
2024/01/20 21:30:38;;;;;;;0.30;0.30;;;-0.50;94.80;;;;;;10431231;28;20230;-78
2024/01/20 21:35:43;;;;;;;0.20;0.20;;;-0.50;94.90;;;;;;10428237;28;20198;-80
2024/01/20 21:40:46;;;;;;;0.40;0.40;;;-0.50;94.70;;;;;;10429825;28;20645;-80
2024/01/20 21:45:48;;;;;;;0.30;0.30;;;-0.60;94.90;;;;;;10427705;28;20251;-80
2024/01/20 21:50:52;;;;;;;0.40;0.40;;;-0.60;94.90;;;;;;10430252;28;20233;-81
2024/01/20 21:55:55;;;;;;;0.40;0.40;;;-0.70;94.90;;;;;;10418293;28;20232;-80
2024/01/20 22:00:57;;;;;;;0.30;0.30;;;-0.60;94.90;;;;;;10454360;28;20214;-81
2024/01/20 22:06:01;;;;;;;0.20;0.20;;;-0.70;94.80;;;;;;10461585;28;20198;-79
2024/01/20 22:11:04;;;;;;;0.30;0.30;;;-0.70;94.70;;;;;;10434870;28;20795;-80
2024/01/20 22:16:07;;;;;;;0.40;0.40;;;-0.70;94.80;;;;;;10432432;28;20263;-81
2024/01/20 22:21:12;;;;;;;0.30;0.30;;;-0.70;94.80;;;;;;10432728;28;20249;-80
2024/01/20 22:26:16;;;;;;;0.30;0.30;;;-0.70;94.80;;;;;;10430611;28;20663;-81
2024/01/20 22:31:18;;;;;;;0.40;0.40;;;-0.70;94.70;;;;;;10431012;28;20420;-79
2024/01/20 22:36:22;;;;;;;0.40;0.40;;;-0.70;94.50;;;;;;10429984;28;20194;-82
2024/01/20 22:41:25;;;;;;;0.30;0.30;;;-0.70;94.50;;;;;;10430318;28;20217;-80
2024/01/20 22:46:27;;;;;;;0.30;0.30;;;-0.80;94.40;;;;;;10429484;28;20202;-78
2024/01/20 22:51:31;;;;;;;0.30;0.30;;;-0.80;94.40;;;;;;10392939;28;20245;-82
2024/01/20 22:56:34;;;;;;;0.30;0.30;;;-0.90;94.50;;;;;;10428560;28;20240;-80
2024/01/20 23:01:36;;;;;;;0.20;0.20;;;-0.80;94.40;;;;;;10406490;28;20267;-79
2024/01/20 23:06:40;;;;;;;0.40;0.40;;;-0.90;94.10;;;;;;10399714;28;20198;-79
2024/01/20 23:11:44;;;;;;;0.30;0.30;;;-1.00;94.20;;;;;;10427041;28;20237;-81
2024/01/20 23:16:46;;;;;;;0.43;0.43;;;-1.00;94.40;;;;;;10427065;28;20210;-80
2024/01/20 23:21:50;;;;;;;0.10;0.10;;;-1.00;94.40;;;;;;10452650;22;20657;-81
2024/01/20 23:26:52;;;;;;;0.40;0.40;;;-1.10;94.40;;;;;;10454676;28;20208;-82
2024/01/20 23:31:54;;;;;;;0.30;0.30;;;-1.00;94.30;;;;;;10418378;28;20226;-81
2024/01/20 23:36:58;;;;;;;0.40;0.40;;;-1.10;94.20;;;;;;10421501;28;20186;-80
2024/01/20 23:42:00;;;;;;;0.50;0.50;;;-1.20;94.30;;;;;;10423312;28;20628;-82
2024/01/20 23:47:03;;;;;;;0.40;0.40;;;-1.20;94.40;;;;;;10419751;28;20193;-81
2024/01/20 23:52:10;;;;;;;0.30;0.30;;;-1.10;94.30;;;;;;10421290;28;20794;-80
2024/01/20 23:57:12;;;;;;;0.40;0.40;;;-1.10;94.30;;;;;;10420407;28;20224;-83
